This is the latest recevied weather packets stored in our database for station/object JO1YDG-13. If no packets are shown the sender has not sent any weather packets the latest 10 day(s).
| Time | Temp. | Humidity | Pressure | Rain* | Wind** | Luminosity | Snow |
|---|---|---|---|---|---|---|---|
| 1777666355 | 15.56° C | 53% | 972.7 hPa | 0 mm | - | - | - |
| 1777666055 | 15.56° C | 51% | 972.7 hPa | 0 mm | - | - | - |
| 1777665755 | 16.11° C | 51% | 972.1 hPa | 0 mm | - | - | - |
| 1777665455 | 16.11° C | 51% | 972.1 hPa | 0 mm | - | - | - |
| 1777665157 | 16.11° C | 52% | 972.1 hPa | 0 mm | - | - | - |
| 1777664856 | 15.56° C | 53% | 972 hPa | 0 mm | - | - | - |
| 1777664556 | 15.56° C | 53% | 972 hPa | 0 mm | - | - | - |
| 1777664256 | 15° C | 55% | 971.8 hPa | 0 mm | - | - | - |
| 1777663955 | 14.44° C | 56% | 971.8 hPa | 0 mm | - | - | - |
| 1777663657 | 13.33° C | 62% | 971.8 hPa | 0 mm | - | - | - |
| 1777663357 | 11.67° C | 75% | 971.9 hPa | 0 mm | - | - | - |
| 1777663056 | 11.67° C | 73% | 971.9 hPa | 0 mm | - | - | - |
| 1777662756 | 12.22° C | 72% | 971.6 hPa | 0 mm | - | - | - |
| 1777662456 | 10.56° C | 86% | 971.6 hPa | 0 mm | - | - | - |
| 1777662156 | 9.44° C | 95% | 971 hPa | 0 mm | - | - | - |
| 1777661856 | 8.89° C | 95% | 971 hPa | 0 mm | - | - | - |
| 1777661555 | 8.89° C | 96% | 971 hPa | 0 mm | - | - | - |
| 1777661255 | 8.89° C | 96% | 971.5 hPa | 0 mm | - | - | - |
| 1777660955 | 9.44° C | 94% | 971.5 hPa | 0 mm | - | - | - |
| 1777660655 | 9.44° C | 93% | 971.2 hPa | 0 mm | - | - | - |
| 1777660355 | 8.89° C | 94% | 971.2 hPa | 0 mm | - | - | - |
| 1777660057 | 8.89° C | 95% | 971.2 hPa | 0 mm | - | - | - |
| 1777659757 | 9.44° C | 95% | 970.4 hPa | 0 mm | - | - | - |
| 1777659456 | 8.89° C | 98% | 970.4 hPa | 0 mm | - | - | - |
| 1777659156 | 8.89° C | 98% | 970.3 hPa | 0 mm | - | - | - |
* Rain latest hour (hover to see other rain measurements)
** Current wind speed in m/s (hover to see current wind gust speed)